Terminal Aerodrome Forecast
Issued by NWS Jackson, MS

Home | Current Version | Previous Version | Text Only | Print | Product List | Glossary On
Versions: 1 2 3 4 5 6 7 8 9 10 11 12 13 14 15
000
FTUS44 KJAN 021301 AAA
TAFMEI
TAF AMD
KMEI 021301Z 0213/0312 19007KT P6SM FEW004 BKN110
     FM021400 23013G20KT P6SM SCT050 SCT250
     FM030100 20010KT P6SM BKN250=

USA.gov is the U.S. government's official web portal to all federal, state and local government web resources and services.